createdAt,value
2023-09-14T00:04:04.706Z,4
2023-09-14T00:08:47.423Z,4
2023-09-14T00:13:30.171Z,4
2023-09-14T00:18:12.949Z,4
2023-09-14T00:22:55.610Z,4
2023-09-14T00:27:38.380Z,4
2023-09-14T00:32:21.076Z,4
2023-09-14T00:37:03.170Z,4
2023-09-14T00:41:45.830Z,4
2023-09-14T00:51:11.292Z,4
2023-09-14T00:55:54.004Z,4
2023-09-14T01:00:36.771Z,4
2023-09-14T01:05:19.464Z,9
2023-09-14T01:10:02.176Z,4
2023-09-14T01:14:44.964Z,4
2023-09-14T01:19:27.701Z,4
2023-09-14T01:24:10.431Z,4
2023-09-14T01:28:53.134Z,4
2023-09-14T01:33:35.842Z,4
2023-09-14T01:38:18.612Z,4
2023-09-14T01:43:01.295Z,4
2023-09-14T01:47:44.033Z,4
2023-09-14T01:52:26.769Z,4
2023-09-14T02:01:52.253Z,4
2023-09-14T02:06:35.021Z,4
2023-09-14T02:11:17.712Z,4
2023-09-14T02:16:00.434Z,4
2023-09-14T02:20:43.147Z,4
2023-09-14T02:25:25.897Z,4
2023-09-14T02:30:08.623Z,4
2023-09-14T02:34:51.336Z,4
2023-09-14T02:39:34.107Z,4
2023-09-14T02:44:16.150Z,4
2023-09-14T02:48:58.846Z,4
2023-09-14T02:53:41.613Z,4
2023-09-14T02:58:23.573Z,4
2023-09-14T03:03:06.308Z,9
2023-09-14T03:12:31.813Z,9
2023-09-14T03:17:14.520Z,9
2023-09-14T03:21:57.289Z,9
2023-09-14T03:26:40.074Z,9
2023-09-14T03:31:22.693Z,9
2023-09-14T03:36:05.418Z,9
2023-09-14T03:40:48.225Z,9
2023-09-14T03:45:30.908Z,9
2023-09-14T03:50:13.612Z,9
2023-09-14T03:54:56.361Z,9
2023-09-14T03:59:39.123Z,9
2023-09-14T04:04:21.817Z,9
2023-09-14T04:09:03.811Z,9
2023-09-14T04:13:46.547Z,9
2023-09-14T04:23:12.023Z,12
2023-09-14T04:27:54.784Z,18
2023-09-14T04:32:37.471Z,31
2023-09-14T04:37:20.195Z,69
2023-09-14T04:42:02.951Z,117
2023-09-14T04:46:45.647Z,213
2023-09-14T04:51:28.382Z,366
2023-09-14T04:56:11.122Z,517
2023-09-14T05:00:52.931Z,618
2023-09-14T05:05:34.510Z,756
2023-09-14T05:10:17.005Z,911
2023-09-14T05:14:59.517Z,1247
2023-09-14T05:24:24.515Z,1990
2023-09-14T05:29:07.020Z,2079
2023-09-14T05:33:49.417Z,1998
2023-09-14T05:38:31.895Z,2235
2023-09-14T05:43:14.423Z,2582
2023-09-14T05:47:56.924Z,2901
2023-09-14T05:52:39.420Z,2863
2023-09-14T05:57:21.915Z,3393
2023-09-14T06:02:04.319Z,3638
2023-09-14T06:11:29.353Z,3451
2023-09-14T06:16:11.813Z,3480
2023-09-14T06:20:54.372Z,3641
2023-09-14T06:25:36.811Z,3605
2023-09-14T06:30:19.315Z,3892
2023-09-14T06:35:01.711Z,3920
2023-09-14T06:39:44.221Z,3943
2023-09-14T06:49:09.217Z,4556
2023-09-14T06:58:34.214Z,3971
2023-09-14T07:03:16.608Z,4581
2023-09-14T07:07:59.114Z,4475
2023-09-14T07:12:41.612Z,4179
2023-09-14T07:17:24.062Z,3855
2023-09-14T07:22:06.805Z,4942
2023-09-14T07:26:49.114Z,4932
2023-09-14T07:31:30.716Z,5301
2023-09-14T07:36:13.213Z,5951
2023-09-14T07:45:38.112Z,5873
2023-09-14T07:50:19.775Z,5761
2023-09-14T07:55:02.210Z,6842
2023-09-14T07:59:44.711Z,6693
2023-09-14T08:04:27.213Z,6991
2023-09-14T08:09:09.714Z,7576
2023-09-14T08:13:52.217Z,8227
2023-09-14T08:18:34.672Z,8795
2023-09-14T08:23:17.117Z,8124
2023-09-14T08:32:42.116Z,11334
2023-09-14T08:37:24.617Z,9066
2023-09-14T08:42:07.178Z,8608
2023-09-14T08:46:48.770Z,12019
2023-09-14T08:51:30.302Z,13835
2023-09-14T08:56:12.801Z,10991
2023-09-14T09:00:55.304Z,15894
2023-09-14T09:05:37.810Z,22054
2023-09-14T09:10:20.295Z,29870
2023-09-14T09:19:45.204Z,33451
2023-09-14T09:24:27.706Z,22170
2023-09-14T09:29:10.200Z,37413
2023-09-14T09:33:52.709Z,28208
2023-09-14T09:38:35.195Z,20195
2023-09-14T09:43:17.831Z,16055
2023-09-14T09:48:00.109Z,22738
2023-09-14T09:52:42.599Z,23741
2023-09-14T09:57:25.105Z,24374
2023-09-14T10:06:49.352Z,24952
2023-09-14T10:16:14.098Z,18267
2023-09-14T10:20:56.671Z,19219
2023-09-14T10:25:39.102Z,19101
2023-09-14T10:30:21.611Z,20871
2023-09-14T10:35:04.097Z,24359
2023-09-14T10:39:46.597Z,25345
2023-09-14T10:44:29.110Z,28028
2023-09-14T10:53:54.123Z,28606
2023-09-14T11:03:19.416Z,22709
2023-09-14T11:08:01.509Z,20362
2023-09-14T11:12:44.019Z,23334
2023-09-14T11:17:26.449Z,23435
2023-09-14T11:22:09.003Z,29299
2023-09-14T11:26:51.448Z,31595
2023-09-14T11:31:33.910Z,26482
2023-09-14T11:40:59.121Z,39452
2023-09-14T11:45:41.302Z,28094
2023-09-14T11:50:23.794Z,53550
2023-09-14T11:59:48.813Z,37269
2023-09-14T12:04:31.310Z,58969
2023-09-14T12:09:13.842Z,44046
2023-09-14T12:13:56.221Z,49111
2023-09-14T12:18:38.693Z,51880
2023-09-14T12:28:03.694Z,31888
2023-09-14T12:32:46.190Z,28250
2023-09-14T12:37:28.696Z,30640
2023-09-14T12:42:11.215Z,39783
2023-09-14T12:46:53.601Z,60099
2023-09-14T12:56:18.913Z,43118
2023-09-14T13:01:00.829Z,34921
2023-09-14T13:05:43.585Z,5453
2023-09-14T13:10:26.315Z,23035
2023-09-14T13:19:51.807Z,19179
2023-09-14T13:24:34.513Z,22710
2023-09-14T13:29:17.335Z,19495
2023-09-14T13:34:00.020Z,20139
2023-09-14T13:38:42.707Z,20907
2023-09-14T13:43:25.447Z,20835
2023-09-14T13:52:50.894Z,20061
2023-09-14T13:57:33.713Z,18398
2023-09-14T14:02:16.363Z,19551
2023-09-14T14:06:58.420Z,32473
2023-09-14T14:11:41.120Z,4564
2023-09-14T14:16:23.849Z,19274
2023-09-14T14:21:06.608Z,2610
2023-09-14T14:30:32.048Z,44659
2023-09-14T14:35:14.751Z,19264
2023-09-14T14:39:57.535Z,16867
2023-09-14T14:44:40.248Z,51044
2023-09-14T14:49:23.026Z,51885
2023-09-14T14:54:04.830Z,50904
2023-09-14T14:58:47.315Z,41077
2023-09-14T15:03:29.722Z,19080
2023-09-14T15:08:12.214Z,16639
2023-09-14T15:17:37.233Z,16715
2023-09-14T15:27:01.277Z,16122
2023-09-14T15:36:26.231Z,15018
2023-09-14T15:41:08.734Z,13312
2023-09-14T15:45:51.238Z,12534
2023-09-14T15:55:16.175Z,11488
2023-09-14T16:04:41.143Z,18866
2023-09-14T16:14:06.153Z,15371
2023-09-14T16:18:48.602Z,15558
2023-09-14T16:23:31.072Z,12276
2023-09-14T16:28:12.756Z,10197
2023-09-14T16:32:55.255Z,8462
2023-09-14T16:37:37.646Z,8278
2023-09-14T16:42:20.153Z,5846
2023-09-14T16:47:02.660Z,4341
2023-09-14T16:51:45.166Z,3771
2023-09-14T17:01:09.262Z,2768
2023-09-14T17:05:50.856Z,2233
2023-09-14T17:10:33.360Z,1744
2023-09-14T17:15:15.807Z,1365
2023-09-14T17:19:58.354Z,973
2023-09-14T17:24:39.929Z,648
2023-09-14T17:29:22.470Z,416
2023-09-14T17:34:04.884Z,253
2023-09-14T17:38:47.361Z,154
2023-09-14T17:48:12.351Z,51
2023-09-14T17:52:54.832Z,19
2023-09-14T17:57:37.361Z,13
2023-09-14T18:02:19.851Z,9
2023-09-14T18:07:02.256Z,9
2023-09-14T18:11:44.747Z,9
2023-09-14T18:16:27.209Z,9
2023-09-14T18:21:09.754Z,9
2023-09-14T18:25:52.254Z,9
2023-09-14T18:35:16.360Z,9
2023-09-14T18:39:58.852Z,9
2023-09-14T18:44:41.259Z,9
2023-09-14T18:49:23.752Z,9
2023-09-14T18:54:06.250Z,9
2023-09-14T18:58:48.753Z,9
2023-09-14T19:03:31.249Z,9
2023-09-14T19:08:13.689Z,9
2023-09-14T19:12:56.163Z,9
2023-09-14T19:22:20.370Z,9
2023-09-14T19:27:01.945Z,9
2023-09-14T19:31:44.449Z,9
2023-09-14T19:36:26.847Z,9
2023-09-14T19:41:09.353Z,9
2023-09-14T19:45:51.840Z,9
2023-09-14T19:50:34.443Z,9
2023-09-14T19:55:15.924Z,9
2023-09-14T19:59:58.447Z,9
2023-09-14T20:09:23.375Z,9
2023-09-14T20:14:05.844Z,9
2023-09-14T20:18:48.348Z,9
2023-09-14T20:23:30.845Z,9
2023-09-14T20:28:13.347Z,9
2023-09-14T20:32:55.845Z,9
2023-09-14T20:37:38.341Z,9
2023-09-14T20:42:20.777Z,9
2023-09-14T20:47:03.251Z,9
2023-09-14T20:56:28.233Z,9
2023-09-14T21:01:10.738Z,9
2023-09-14T21:05:53.191Z,4
2023-09-14T21:10:34.857Z,4
2023-09-14T21:15:17.382Z,4
2023-09-14T21:19:59.751Z,4
2023-09-14T21:24:42.238Z,4
2023-09-14T21:29:24.734Z,9
2023-09-14T21:34:07.226Z,9
2023-09-14T21:43:32.237Z,9
2023-09-14T21:48:14.739Z,9
2023-09-14T21:52:57.141Z,9
2023-09-14T21:57:39.637Z,9
2023-09-14T22:02:22.152Z,9
2023-09-14T22:07:04.584Z,9
2023-09-14T22:11:46.239Z,9
2023-09-14T22:16:28.735Z,9
2023-09-14T22:21:11.234Z,9
2023-09-14T22:30:36.145Z,9
2023-09-14T22:35:18.619Z,9
2023-09-14T22:40:01.092Z,9
2023-09-14T22:44:43.635Z,9
2023-09-14T22:49:26.140Z,9
2023-09-14T22:54:08.565Z,9
2023-09-14T22:58:51.029Z,9
2023-09-14T23:03:33.543Z,9
2023-09-14T23:08:16.022Z,9
2023-09-14T23:17:40.308Z,9
2023-09-14T23:22:22.640Z,9
2023-09-14T23:27:05.122Z,9
2023-09-14T23:31:47.554Z,9
2023-09-14T23:36:30.039Z,9
2023-09-14T23:41:12.524Z,9
2023-09-14T23:45:55.023Z,9
2023-09-14T23:50:37.487Z,9
2023-09-14T23:55:19.978Z,9
